| time (UTC) | temp F | wind direction | speed knots | gust knots | rain 1hr in | rain 24hr in | rain mn in | humidity % | barometer mb |
| 20260506204203 | 74 | 65 | 2.6 | 7.8 | 0.00 | 0.00 | 0.00 | 76 | 1010.0 |
| 20260506203703 | 75 | 311 | 2.6 | 8.7 | 0.00 | 0.00 | 0.00 | 77 | 1009.9 |
| 20260506203204 | 75 | 302 | 0.9 | 10.4 | 0.00 | 0.00 | 0.00 | 77 | 1009.7 |
| 20260506202704 | 75 | 336 | 1.7 | 10.4 | 0.00 | 0.00 | 0.00 | 77 | 1009.7 |
| 20260506202204 | 76 | 30 | 0.9 | 4.3 | 0.00 | 0.00 | 0.00 | 78 | 1009.6 |
| 20260506201703 | 76 | 319 | 0.9 | 10.4 | 0.00 | 0.00 | 0.00 | 77 | 1009.5 |
| 20260506201204 | 77 | 344 | 1.7 | 7.0 | 0.00 | 0.00 | 0.00 | 77 | 1009.4 |
| 20260506200704 | 77 | 315 | 0.9 | 10.4 | 0.00 | 0.00 | 0.00 | 78 | 1009.4 |
| 20260506200204 | 77 | 301 | 0.9 | 7.0 | 0.00 | 0.00 | 0.00 | 77 | 1009.3 |
| 20260506195703 | 78 | 352 | 1.7 | 6.1 | 0.00 | 0.00 | 0.00 | 77 | 1009.3 |
| 20260506195204 | 78 | 268 | 0.0 | 5.2 | 0.00 | 0.00 | 0.00 | 78 | 1009.4 |
| 20260506194704 | 78 | 329 | 0.0 | 0.0 | 0.00 | 0.00 | 0.00 | 77 | 1009.6 |
| 20260506194203 | 78 | 302 | 0.9 | 2.6 | 0.00 | 0.00 | 0.00 | 77 | 1009.4 |
| 20260506193703 | 78 | 313 | 0.0 | 0.0 | 0.00 | 0.00 | 0.00 | 76 | 1009.5 |
| 20260506193204 | 78 | 296 | 0.0 | 1.7 | 0.00 | 0.00 | 0.00 | 78 | 1009.6 |
| 20260506192704 | 77 | 19 | 0.0 | 0.0 | 0.00 | 0.00 | 0.00 | 79 | 1009.5 |
| 20260506191704 | 77 | 314 | 0.0 | 0.0 | 0.00 | 0.00 | 0.00 | 78 | 1009.4 |
| 20260506191204 | 77 | 284 | 0.0 | 0.0 | 0.00 | 0.00 | 0.00 | 78 | 1009.4 |
| 20260506185703 | 75 | 330 | 0.0 | 0.0 | 0.00 | 0.00 | 0.00 | 80 | 1009.7 |
| 20260506184204 | 74 | 327 | 0.0 | 0.0 | 0.00 | 0.00 | 0.00 | 82 | 1009.6 |
| 20260506183704 | 73 | 352 | 0.9 | 2.6 | 0.00 | 0.00 | 0.00 | 83 | 1009.6 |
| 20260506183204 | 73 | 5 | 0.0 | 0.0 | 0.00 | 0.00 | 0.00 | 81 | 1009.6 |
| 20260506182704 | 72 | 308 | 0.0 | 4.3 | 0.00 | 0.00 | 0.00 | 83 | 1009.6 |
| 20260506182204 | 72 | 339 | 0.9 | 4.3 | 0.00 | 0.00 | 0.00 | 84 | 1009.7 |
| 20260506181704 | 71 | 322 | 0.0 | 0.0 | 0.00 | 0.00 | 0.00 | 86 | 1009.7 |
| 20260506181204 | 71 | 325 | 0.0 | 2.6 | 0.00 | 0.00 | 0.00 | 86 | 1009.8 |
| 20260506180703 | 70 | 22 | 0.9 | 4.3 | 0.00 | 0.00 | 0.00 | 86 | 1009.7 |
| 20260506180203 | 69 | 331 | 0.0 | 0.0 | 0.00 | 0.00 | 0.00 | 87 | 1009.8 |
| 20260506175204 | 68 | 4 | 0.0 | 0.0 | 0.00 | 0.00 | 0.00 | 88 | 1009.9 |
| 20260506174703 | 67 | 311 | 0.0 | 0.0 | 0.00 | 0.00 | 0.00 | 88 | 1009.9 |
| 20260506174204 | 67 | 17 | 0.0 | 0.0 | 0.00 | 0.00 | 0.00 | 88 | 1010.0 |
| 20260506173704 | 66 | 348 | 0.0 | 0.0 | 0.00 | 0.00 | 0.00 | 89 | 1010.0 |
| 20260506172703 | 65 | 315 | 0.0 | 0.0 | 0.00 | 0.00 | 0.00 | 88 | 1010.4 |
| 20260506171703 | 65 | 318 | 0.0 | 2.6 | 0.00 | 0.00 | 0.00 | 88 | 1010.7 |
| 20260506171203 | 65 | 281 | 0.9 | 6.1 | 0.00 | 0.00 | 0.00 | 88 | 1010.9 |
| 20260506170704 | 65 | 45 | 0.9 | 7.0 | 0.00 | 0.00 | 0.00 | 88 | 1011.1 |
| 20260506170204 | 66 | 4 | 0.9 | 8.7 | 0.00 | 0.00 | 0.00 | 87 | 1011.0 |
| 20260506165704 | 66 | 317 | 0.9 | 8.7 | 0.00 | 0.00 | 0.00 | 87 | 1011.0 |
| 20260506164704 | 68 | 352 | 1.7 | 10.4 | 0.00 | 0.00 | 0.00 | 86 | 1011.0 |
| 20260506163704 | 70 | 320 | 3.5 | 10.4 | 0.00 | 0.00 | 0.00 | 82 | 1011.0 |
| 20260506162704 | 75 | 302 | 3.5 | 8.7 | 0.00 | 0.00 | 0.00 | 80 | 1011.1 |
| 20260506162204 | 78 | 328 | 0.0 | 1.7 | 0.00 | 0.00 | 0.00 | 91 | 1010.8 |
| 20260506161704 | 77 | 0 | 0.0 | 0.0 | 0.00 | 0.00 | 0.00 | 91 | 1010.6 |
| 20260506161204 | 77 | 55 | 0.0 | 0.0 | 0.00 | 0.00 | 0.00 | 91 | 1010.6 |
| 20260506160203 | 77 | 60 | 0.0 | 0.0 | 0.00 | 0.00 | 0.00 | 92 | 1010.8 |
| 20260506155704 | 77 | 86 | 0.0 | 0.0 | 0.00 | 0.00 | 0.00 | 92 | 1010.6 |
| 20260506155204 | 77 | 91 | 0.0 | 0.0 | 0.00 | 0.00 | 0.00 | 92 | 1010.3 |
| 20260506154703 | 77 | 100 | 0.0 | 0.0 | 0.00 | 0.00 | 0.00 | 92 | 1010.2 |
| 20260506154203 | 77 | 100 | 0.0 | 0.0 | 0.00 | 0.00 | 0.00 | 92 | 1010.2 |
| 20260506153703 | 77 | 99 | 0.0 | 0.0 | 0.00 | 0.00 | 0.00 | 92 | 1009.9 |
| 20260506153204 | 77 | 106 | 0.0 | 0.0 | 0.00 | 0.00 | 0.00 | 92 | 1009.6 |
| 20260506152203 | 76 | 106 | 0.0 | 0.0 | 0.00 | 0.00 | 0.00 | 92 | 1009.6 |
| 20260506151704 | 76 | 106 | 0.0 | 0.0 | 0.00 | 0.00 | 0.00 | 92 | 1009.6 |
| 20260506151204 | 76 | 106 | 0.0 | 0.0 | 0.00 | 0.00 | 0.00 | 92 | 1009.3 |
| 20260506150704 | 76 | 106 | 0.0 | 0.0 | 0.00 | 0.00 | 0.00 | 92 | 1009.1 |
| 20260506150203 | 76 | 106 | 0.0 | 0.0 | 0.00 | 0.00 | 0.00 | 92 | 1009.1 |
| 20260506145203 | 76 | 106 | 0.0 | 0.0 | 0.00 | 0.00 | 0.00 | 93 | 1008.9 |
| 20260506144703 | 76 | 106 | 0.0 | 0.0 | 0.00 | 0.00 | 0.00 | 93 | 1008.9 |
| 20260506144204 | 76 | 106 | 0.0 | 0.0 | 0.00 | 0.00 | 0.00 | 93 | 1009.0 |
| 20260506143204 | 76 | 106 | 0.0 | 0.0 | 0.00 | 0.00 | 0.00 | 93 | 1009.1 |
| 20260506142704 | 76 | 106 | 0.0 | 0.0 | 0.00 | 0.00 | 0.00 | 93 | 1009.1 |
| 20260506141703 | 76 | 106 | 0.0 | 0.0 | 0.00 | 0.00 | 0.00 | 93 | 1009.2 |
| 20260506141203 | 76 | 106 | 0.0 | 0.0 | 0.00 | 0.00 | 0.00 | 93 | 1009.0 |
| 20260506135703 | 75 | 106 | 0.0 | 0.0 | 0.00 | 0.00 | 0.00 | 93 | 1008.3 |
| 20260506135203 | 75 | 106 | 0.0 | 0.0 | 0.00 | 0.00 | 0.00 | 93 | 1008.2 |
| 20260506134703 | 75 | 106 | 0.0 | 0.0 | 0.00 | 0.00 | 0.00 | 93 | 1008.1 |
| 20260506133703 | 75 | 189 | 0.0 | 0.0 | 0.00 | 0.00 | 0.00 | 93 | 1008.1 |
| 20260506133204 | 75 | 189 | 0.0 | 0.0 | 0.00 | 0.00 | 0.00 | 94 | 1008.1 |
| 20260506132203 | 75 | 189 | 0.0 | 0.0 | 0.00 | 0.00 | 0.00 | 93 | 1008.1 |
| 20260506130204 | 75 | 189 | 0.0 | 0.0 | 0.00 | 0.00 | 0.00 | 93 | 1008.1 |
| 20260506125704 | 75 | 189 | 0.0 | 0.0 | 0.00 | 0.00 | 0.00 | 93 | 1008.1 |
| 20260506124704 | 75 | 189 | 0.0 | 0.0 | 0.00 | 0.00 | 0.00 | 93 | 1008.2 |
| 20260506123704 | 75 | 189 | 0.0 | 0.0 | 0.00 | 0.00 | 0.00 | 93 | 1008.1 |
| 20260506123204 | 75 | 189 | 0.0 | 0.0 | 0.00 | 0.00 | 0.00 | 93 | 1008.1 |
| 20260506121703 | 75 | 189 | 0.0 | 0.0 | 0.00 | 0.00 | 0.00 | 93 | 1008.0 |
| 20260506121203 | 75 | 189 | 0.0 | 0.0 | 0.00 | 0.00 | 0.00 | 93 | 1008.1 |
| 20260506120704 | 75 | 189 | 0.0 | 0.0 | 0.00 | 0.00 | 0.00 | 93 | 1008.0 |
| 20260506120203 | 75 | 189 | 0.0 | 0.0 | 0.00 | 0.00 | 0.00 | 93 | 1008.1 |
| 20260506115204 | 75 | 189 | 0.0 | 0.0 | 0.00 | 0.00 | 0.00 | 92 | 1008.1 |
| 20260506114704 | 75 | 189 | 0.0 | 0.0 | 0.00 | 0.00 | 0.00 | 92 | 1008.0 |
| 20260506114204 | 75 | 189 | 0.0 | 0.0 | 0.00 | 0.00 | 0.00 | 92 | 1007.9 |
| 20260506113704 | 75 | 189 | 0.0 | 0.0 | 0.00 | 0.00 | 0.00 | 92 | 1007.8 |
| 20260506113203 | 75 | 189 | 0.0 | 0.0 | 0.00 | 0.00 | 0.00 | 92 | 1007.9 |
| 20260506112703 | 75 | 189 | 0.0 | 0.0 | 0.00 | 0.00 | 0.00 | 92 | 1007.9 |
| 20260506112203 | 75 | 189 | 0.0 | 0.0 | 0.00 | 0.00 | 0.00 | 92 | 1007.8 |
| 20260506111704 | 75 | 189 | 0.0 | 0.0 | 0.00 | 0.00 | 0.00 | 92 | 1007.7 |
| 20260506111203 | 75 | 189 | 0.0 | 0.0 | 0.00 | 0.00 | 0.00 | 92 | 1007.8 |
| 20260506110704 | 75 | 189 | 0.0 | 0.0 | 0.00 | 0.00 | 0.00 | 92 | 1007.7 |
| 20260506110204 | 75 | 189 | 0.0 | 0.0 | 0.00 | 0.00 | 0.00 | 92 | 1007.7 |
| 20260506105704 | 75 | 189 | 0.0 | 0.0 | 0.00 | 0.00 | 0.00 | 92 | 1007.7 |
| 20260506105204 | 75 | 189 | 0.0 | 0.0 | 0.00 | 0.00 | 0.00 | 92 | 1007.5 |
| 20260506104704 | 75 | 189 | 0.0 | 0.0 | 0.00 | 0.00 | 0.00 | 92 | 1007.5 |
| 20260506104203 | 75 | 189 | 0.0 | 0.0 | 0.00 | 0.00 | 0.00 | 92 | 1007.4 |
| 20260506103703 | 75 | 189 | 0.0 | 0.0 | 0.00 | 0.00 | 0.00 | 92 | 1007.4 |
| 20260506103203 | 75 | 189 | 0.0 | 0.0 | 0.00 | 0.00 | 0.00 | 92 | 1007.4 |
| 20260506102703 | 75 | 189 | 0.0 | 0.9 | 0.00 | 0.00 | 0.00 | 92 | 1007.5 |
| 20260506102204 | 75 | 189 | 0.0 | 2.6 | 0.00 | 0.00 | 0.00 | 92 | 1007.4 |
| 20260506101704 | 75 | 200 | 0.0 | 0.0 | 0.00 | 0.00 | 0.00 | 92 | 1007.3 |
| 20260506101203 | 75 | 200 | 0.0 | 1.7 | 0.00 | 0.00 | 0.00 | 92 | 1007.2 |
| 20260506100703 | 75 | 194 | 0.0 | 0.0 | 0.00 | 0.00 | 0.00 | 92 | 1007.1 |
| 20260506100204 | 75 | 194 | 0.0 | 0.9 | 0.00 | 0.00 | 0.00 | 92 | 1007.0 |
| 20260506095703 | 75 | 192 | 0.0 | 2.6 | 0.00 | 0.00 | 0.00 | 92 | 1007.0 |
| 20260506094703 | 75 | 198 | 0.0 | 1.7 | 0.00 | 0.00 | 0.00 | 92 | 1006.9 |
| 20260506093703 | 75 | 181 | 0.0 | 2.6 | 0.00 | 0.00 | 0.00 | 92 | 1006.8 |
| 20260506093204 | 75 | 183 | 0.9 | 2.6 | 0.00 | 0.00 | 0.00 | 92 | 1006.6 |
| 20260506092204 | 75 | 181 | 0.0 | 0.9 | 0.00 | 0.00 | 0.00 | 92 | 1006.7 |
| 20260506091204 | 75 | 181 | 0.0 | 0.9 | 0.00 | 0.00 | 0.00 | 91 | 1006.7 |
| 20260506090704 | 75 | 181 | 0.0 | 0.9 | 0.00 | 0.00 | 0.00 | 91 | 1006.7 |
| 20260506090203 | 75 | 181 | 0.0 | 0.0 | 0.00 | 0.00 | 0.00 | 91 | 1006.8 |
| 20260506085204 | 75 | 184 | 0.0 | 0.0 | 0.00 | 0.00 | 0.00 | 91 | 1006.7 |
| 20260506084704 | 75 | 179 | 0.0 | 1.7 | 0.00 | 0.00 | 0.00 | 91 | 1006.6 |
| 20260506083704 | 75 | 170 | 0.0 | 2.6 | 0.00 | 0.00 | 0.00 | 91 | 1006.7 |
| 20260506083203 | 75 | 177 | 0.0 | 1.7 | 0.00 | 0.00 | 0.00 | 91 | 1006.7 |
| 20260506082704 | 75 | 176 | 0.0 | 0.9 | 0.00 | 0.00 | 0.00 | 91 | 1006.7 |
| 20260506082204 | 75 | 175 | 0.0 | 0.0 | 0.00 | 0.00 | 0.00 | 91 | 1006.8 |
| 20260506081703 | 75 | 158 | 0.0 | 0.0 | 0.00 | 0.00 | 0.00 | 91 | 1006.7 |
| 20260506081204 | 75 | 151 | 0.0 | 0.9 | 0.00 | 0.00 | 0.00 | 91 | 1006.7 |
| 20260506080703 | 75 | 173 | 0.0 | 0.0 | 0.00 | 0.00 | 0.00 | 91 | 1006.8 |
| 20260506080203 | 75 | 171 | 0.0 | 2.6 | 0.00 | 0.00 | 0.00 | 91 | 1006.9 |
| 20260506072704 | 75 | 204 | 0.0 | 0.9 | 0.00 | 0.00 | 0.00 | 92 | 1007.1 |
| 20260506072203 | 75 | 195 | 0.0 | 0.0 | 0.00 | 0.00 | 0.00 | 92 | 1007.2 |
| 20260506071703 | 75 | 195 | 0.0 | 0.0 | 0.00 | 0.00 | 0.00 | 92 | 1007.2 |
| 20260506071204 | 75 | 195 | 0.0 | 1.7 | 0.00 | 0.00 | 0.00 | 92 | 1007.3 |
| 20260506070704 | 75 | 195 | 0.0 | 2.6 | 0.00 | 0.00 | 0.00 | 92 | 1007.3 |
| 20260506062204 | 75 | 182 | 0.0 | 0.0 | 0.00 | 0.00 | 0.00 | 92 | 1007.2 |
| 20260506061704 | 75 | 182 | 0.0 | 0.0 | 0.00 | 0.00 | 0.00 | 92 | 1007.3 |
| 20260506061203 | 75 | 182 | 0.0 | 0.0 | 0.00 | 0.00 | 0.00 | 92 | 1007.3 |
| 20260506060703 | 75 | 184 | 0.0 | 0.0 | 0.00 | 0.00 | 0.00 | 92 | 1007.3 |
| 20260506060204 | 75 | 184 | 0.0 | 0.0 | 0.00 | 0.00 | 0.00 | 92 | 1007.5 |
| 20260506050703 | 75 | 187 | 0.0 | 1.7 | 0.00 | 0.00 | 0.00 | 90 | 1007.4 |
| 20260506050203 | 76 | 187 | 0.0 | 0.9 | 0.00 | 0.00 | 0.00 | 90 | 1007.4 |
| 20260506044203 | 76 | 171 | 0.0 | 0.0 | 0.00 | 0.00 | 0.00 | 90 | 1007.4 |
| 20260506043703 | 76 | 187 | 0.0 | 0.0 | 0.00 | 0.00 | 0.00 | 90 | 1007.5 |
| 20260506043204 | 76 | 187 | 0.0 | 0.0 | 0.00 | 0.00 | 0.00 | 90 | 1007.5 |
| 20260506042703 | 76 | 187 | 0.0 | 0.0 | 0.00 | 0.00 | 0.00 | 90 | 1007.4 |
| 20260506042203 | 76 | 187 | 0.0 | 0.0 | 0.00 | 0.00 | 0.00 | 90 | 1007.3 |
| 20260506041704 | 76 | 187 | 0.0 | 0.9 | 0.00 | 0.00 | 0.00 | 89 | 1007.2 |
| 20260506041204 | 76 | 187 | 0.0 | 1.7 | 0.00 | 0.00 | 0.00 | 89 | 1007.2 |
| 20260506040204 | 76 | 167 | 0.0 | 0.0 | 0.00 | 0.00 | 0.00 | 89 | 1007.2 |
| 20260506035704 | 76 | 167 | 0.0 | 0.0 | 0.00 | 0.00 | 0.00 | 89 | 1007.2 |
| 20260506035204 | 76 | 170 | 0.0 | 0.9 | 0.00 | 0.00 | 0.00 | 89 | 1007.1 |
| 20260506034204 | 76 | 174 | 0.0 | 0.0 | 0.00 | 0.00 | 0.00 | 89 | 1006.8 |
| 20260506033703 | 76 | 166 | 0.0 | 0.0 | 0.00 | 0.00 | 0.00 | 89 | 1006.8 |
| 20260506033204 | 76 | 166 | 0.0 | 0.0 | 0.00 | 0.00 | 0.00 | 88 | 1006.7 |
| 20260506032704 | 76 | 166 | 0.0 | 0.9 | 0.00 | 0.00 | 0.00 | 88 | 1006.6 |
| 20260506032203 | 76 | 166 | 0.0 | 0.0 | 0.00 | 0.00 | 0.00 | 88 | 1006.6 |
| 20260506031704 | 77 | 166 | 0.0 | 0.0 | 0.00 | 0.00 | 0.00 | 88 | 1006.5 |
| 20260506031203 | 77 | 166 | 0.0 | 0.0 | 0.00 | 0.00 | 0.00 | 87 | 1006.5 |
| 20260506030703 | 77 | 166 | 0.0 | 0.0 | 0.00 | 0.00 | 0.00 | 87 | 1006.4 |
| 20260506030204 | 77 | 166 | 0.0 | 0.0 | 0.00 | 0.00 | 0.00 | 87 | 1006.3 |
| 20260506025704 | 77 | 166 | 0.0 | 0.0 | 0.00 | 0.00 | 0.00 | 86 | 1006.1 |
| 20260506024704 | 77 | 166 | 0.0 | 0.0 | 0.00 | 0.00 | 0.00 | 86 | 1006.0 |
| 20260506024204 | 77 | 166 | 0.0 | 0.0 | 0.00 | 0.00 | 0.00 | 86 | 1006.0 |
| 20260506023703 | 77 | 166 | 0.0 | 0.0 | 0.00 | 0.00 | 0.00 | 86 | 1006.0 |
| 20260506023203 | 78 | 151 | 0.0 | 0.0 | 0.00 | 0.00 | 0.00 | 86 | 1006.0 |
| 20260506022703 | 78 | 151 | 0.0 | 0.0 | 0.00 | 0.00 | 0.00 | 86 | 1005.9 |
| 20260506022203 | 78 | 181 | 0.0 | 0.9 | 0.00 | 0.00 | 0.00 | 85 | 1005.8 |
| 20260506021703 | 78 | 188 | 0.0 | 0.0 | 0.00 | 0.00 | 0.00 | 85 | 1005.7 |
| 20260506021204 | 78 | 188 | 0.0 | 0.0 | 0.00 | 0.00 | 0.00 | 85 | 1005.5 |
| 20260506020704 | 78 | 188 | 0.0 | 0.0 | 0.00 | 0.00 | 0.00 | 85 | 1005.5 |
| 20260506020203 | 78 | 188 | 0.0 | 0.0 | 0.00 | 0.00 | 0.00 | 84 | 1005.5 |
| 20260506015703 | 79 | 188 | 0.0 | 0.9 | 0.00 | 0.00 | 0.00 | 84 | 1005.5 |
| 20260506015203 | 79 | 188 | 0.0 | 0.9 | 0.00 | 0.00 | 0.00 | 84 | 1005.5 |
| 20260506014704 | 79 | 188 | 0.0 | 0.0 | 0.00 | 0.00 | 0.00 | 84 | 1005.5 |
| 20260506014203 | 79 | 188 | 0.0 | 0.0 | 0.00 | 0.00 | 0.00 | 83 | 1005.5 |
| 20260506013703 | 79 | 188 | 0.0 | 0.0 | 0.00 | 0.00 | 0.00 | 83 | 1005.5 |
| 20260506013203 | 80 | 188 | 0.0 | 0.0 | 0.00 | 0.00 | 0.00 | 82 | 1005.5 |
| 20260506012703 | 80 | 188 | 0.0 | 0.0 | 0.00 | 0.00 | 0.00 | 82 | 1005.4 |
| 20260506012204 | 80 | 188 | 0.0 | 0.0 | 0.00 | 0.00 | 0.00 | 81 | 1005.4 |
| 20260506011204 | 81 | 188 | 0.0 | 0.0 | 0.00 | 0.00 | 0.00 | 80 | 1005.3 |
| 20260506010704 | 81 | 188 | 0.0 | 0.0 | 0.00 | 0.00 | 0.00 | 80 | 1005.3 |
| 20260506010203 | 81 | 188 | 0.0 | 0.0 | 0.00 | 0.00 | 0.00 | 80 | 1005.1 |
| 20260506005704 | 81 | 188 | 0.0 | 0.0 | 0.00 | 0.00 | 0.00 | 79 | 1005.0 |
| 20260506005203 | 82 | 188 | 0.0 | 0.0 | 0.00 | 0.00 | 0.00 | 79 | 1005.0 |
| 20260506004204 | 82 | 188 | 0.0 | 0.0 | 0.00 | 0.00 | 0.00 | 78 | 1004.8 |
| 20260506003204 | 82 | 188 | 0.0 | 0.0 | 0.00 | 0.00 | 0.00 | 76 | 1004.7 |
| 20260506002203 | 82 | 188 | 0.0 | 0.0 | 0.00 | 0.00 | 0.00 | 76 | 1004.6 |
| 20260506001704 | 83 | 188 | 0.0 | 0.0 | 0.00 | 0.00 | 0.00 | 76 | 1004.6 |
| 20260506001203 | 83 | 188 | 0.0 | 0.0 | 0.00 | 0.00 | 0.00 | 75 | 1004.5 |
| 20260506000204 | 83 | 188 | 0.0 | 0.0 | 0.00 | 0.00 | 0.00 | 74 | 1004.6 |
| 20260505235703 | 83 | 188 | 0.0 | 0.9 | 0.00 | 0.00 | 0.00 | 74 | 1004.5 |
| 20260505235203 | 83 | 213 | 0.0 | 0.0 | 0.00 | 0.00 | 0.00 | 73 | 1004.5 |
| 20260505234703 | 83 | 216 | 0.0 | 2.6 | 0.00 | 0.00 | 0.00 | 73 | 1004.4 |
| 20260505234203 | 83 | 174 | 0.0 | 2.6 | 0.00 | 0.00 | 0.00 | 74 | 1004.4 |
| 20260505233704 | 84 | 187 | 0.0 | 1.7 | 0.00 | 0.00 | 0.00 | 73 | 1004.4 |
| 20260505233203 | 84 | 187 | 0.0 | 1.7 | 0.00 | 0.00 | 0.00 | 73 | 1004.4 |
| 20260505232703 | 84 | 187 | 0.0 | 0.0 | 0.00 | 0.00 | 0.00 | 73 | 1004.3 |
| 20260505232204 | 84 | 187 | 0.0 | 0.0 | 0.00 | 0.00 | 0.00 | 73 | 1004.5 |
| 20260505231704 | 84 | 187 | 0.0 | 0.0 | 0.00 | 0.00 | 0.00 | 73 | 1004.4 |
| 20260505230203 | 84 | 165 | 0.0 | 1.7 | 0.00 | 0.00 | 0.00 | 73 | 1004.3 |
| 20260505225704 | 84 | 155 | 0.0 | 1.7 | 0.00 | 0.00 | 0.00 | 73 | 1004.2 |
| 20260505225203 | 84 | 154 | 0.0 | 0.0 | 0.00 | 0.00 | 0.00 | 74 | 1004.4 |
| 20260505224704 | 83 | 160 | 0.0 | 0.0 | 0.00 | 0.00 | 0.00 | 74 | 1004.5 |
| 20260505224203 | 84 | 166 | 0.0 | 0.0 | 0.00 | 0.00 | 0.00 | 73 | 1004.5 |
| 20260505223204 | 84 | 177 | 0.0 | 0.0 | 0.00 | 0.00 | 0.00 | 74 | 1004.3 |
| 20260505222704 | 84 | 199 | 0.0 | 0.0 | 0.00 | 0.00 | 0.00 | 73 | 1004.4 |
| 20260505222203 | 84 | 184 | 0.0 | 0.0 | 0.00 | 0.00 | 0.00 | 73 | 1004.5 |
| 20260505221704 | 84 | 186 | 0.0 | 0.0 | 0.00 | 0.00 | 0.00 | 73 | 1004.5 |
| 20260505221204 | 84 | 185 | 0.0 | 0.0 | 0.00 | 0.00 | 0.00 | 73 | 1004.5 |
| 20260505220704 | 84 | 182 | 0.0 | 0.0 | 0.00 | 0.00 | 0.00 | 73 | 1004.6 |
| 20260505220204 | 84 | 150 | 0.0 | 0.0 | 0.00 | 0.00 | 0.00 | 73 | 1004.7 |
| 20260505215704 | 84 | 189 | 0.0 | 0.0 | 0.00 | 0.00 | 0.00 | 73 | 1004.9 |
| 20260505214704 | 84 | 168 | 0.0 | 0.0 | 0.00 | 0.00 | 0.00 | 73 | 1004.8 |
| 20260505214203 | 84 | 187 | 0.0 | 0.0 | 0.00 | 0.00 | 0.00 | 74 | 1004.8 |
| 20260505213704 | 84 | 176 | 0.0 | 0.0 | 0.00 | 0.00 | 0.00 | 74 | 1004.8 |
| 20260505212704 | 84 | 186 | 0.0 | 0.0 | 0.00 | 0.00 | 0.00 | 73 | 1004.9 |
| 20260505212204 | 84 | 183 | 0.0 | 0.0 | 0.00 | 0.00 | 0.00 | 73 | 1004.9 |
| 20260505211703 | 84 | 161 | 0.0 | 0.0 | 0.00 | 0.00 | 0.00 | 74 | 1005.0 |
| 20260505210703 | 83 | 162 | 0.0 | 0.9 | 0.00 | 0.00 | 0.00 | 73 | 1005.2 |
| 20260505210203 | 83 | 181 | 0.0 | 0.0 | 0.00 | 0.00 | 0.00 | 75 | 1005.3 |
| 20260505205704 | 83 | 182 | 0.0 | 0.0 | 0.00 | 0.00 | 0.00 | 74 | 1005.5 |
| 20260505205203 | 83 | 186 | 0.0 | 0.0 | 0.00 | 0.00 | 0.00 | 74 | 1005.6 |